Time;durP1;ratioP1;P1;durP2;ratioP2;P2;SDS_P1;SDS_P2;PMS_P1;PMS_P2;Temp;Humidity;BMP_temperature;BMP_pressure;BME280_temperature;BME280_humidity;BME280_pressure;Samples;Min_cycle;Max_cycle;Signal;HPM_P1;HPM_P2
2022/04/19 00:01:05;;;;;;;;;;;;;;;25.97;33.11;93821.28;5052489;28;8414;-60
2022/04/19 00:03:31;;;;;;;;;;;;;;;25.96;32.98;93811.53;5045664;28;7254;-60
2022/04/19 00:06:03;;;;;;;;;;;;;;;25.96;32.89;93812.28;5046714;28;9009;-60
2022/04/19 00:08:29;;;;;;;;;;;;;;;25.97;33.36;93821.28;5040032;28;9429;-60
2022/04/19 00:10:59;;;;;;;;;;;;;;;25.96;33.25;93817.78;5044391;28;8342;-60
2022/04/19 00:13:30;;;;;;;;;;;;;;;25.95;33.35;93812.78;5031447;28;8788;-60
2022/04/19 00:15:58;;;;;;;;;;;;;;;25.94;33.51;93811.31;5029413;28;7094;-60
2022/04/19 00:18:27;;;;;;;;;;;;;;;25.92;33.04;93806.34;5032340;28;9084;-60
2022/04/19 00:20:54;;;;;;;;;;;;;;;25.93;33.46;93805.06;5030945;28;9555;-60
2022/04/19 00:23:23;;;;;;;;;;;;;;;25.93;32.99;93805.06;5029214;28;7229;-60
2022/04/19 00:26:01;;;;;;;;;;;;;;;25.89;33.17;93801.88;5046469;28;9601;-60
2022/04/19 00:28:27;;;;;;;;;;;;;;;25.90;33.56;93806.09;5044370;28;6993;-60
2022/04/19 00:31:05;;;;;;;;;;;;;;;25.89;33.03;93799.13;5046788;28;9331;-60
2022/04/19 00:33:32;;;;;;;;;;;;;;;25.88;33.31;93794.88;5051341;28;7244;-60
2022/04/19 00:35:58;;;;;;;;;;;;;;;25.87;33.19;93790.66;5021451;28;7250;-60
2022/04/19 00:38:24;;;;;;;;;;;;;;;25.87;33.40;93787.88;5051942;28;7514;-60
2022/04/19 00:41:05;;;;;;;;;;;;;;;25.86;33.34;93789.16;5044430;28;9062;-60
2022/04/19 00:43:34;;;;;;;;;;;;;;;25.86;32.95;93789.16;5034467;28;7056;-60
2022/04/19 00:46:03;;;;;;;;;;;;;;;25.85;32.63;93787.69;5046247;28;7073;-60
2022/04/19 00:48:29;;;;;;;;;;;;;;;25.85;33.37;93790.44;5030061;28;7927;-60
2022/04/19 00:50:56;;;;;;;;;;;;;;;25.84;32.77;93791.69;5031812;28;7187;-60
2022/04/19 00:53:29;;;;;;;;;;;;;;;25.79;33.08;93784.28;5040630;28;7230;-60
2022/04/19 00:55:55;;;;;;;;;;;;;;;25.82;32.81;93779.69;5037040;28;7124;-60
2022/04/19 00:58:21;;;;;;;;;;;;;;;25.80;33.06;93780.25;5035122;28;7071;-60
2022/04/19 01:00:52;;;;;;;;;;;;;;;25.81;32.72;93781.00;5047126;28;9145;-60
2022/04/19 01:03:21;;;;;;;;;;;;;;;25.82;32.90;93780.44;5052627;28;9446;-60
2022/04/19 01:05:48;;;;;;;;;;;;;;;25.77;32.93;93777.81;5037940;28;9138;-60
2022/04/19 01:08:15;;;;;;;;;;;;;;;25.79;32.65;93780.78;5044242;28;7217;-60
2022/04/19 01:10:43;;;;;;;;;;;;;;;25.79;32.34;93778.03;5033667;28;7441;-60
2022/04/19 01:13:19;;;;;;;;;;;;;;;25.78;32.89;93771.00;5029679;28;9047;-60
2022/04/19 01:15:49;;;;;;;;;;;;;;;25.76;33.01;93768.78;5042510;28;9325;-60
2022/04/19 01:18:25;;;;;;;;;;;;;;;25.76;32.17;93771.53;5034297;28;7138;-60
2022/04/19 01:21:04;;;;;;;;;;;;;;;25.75;32.79;93763.81;5045033;28;7329;-60
2022/04/19 01:23:31;;;;;;;;;;;;;;;25.74;32.59;93774.09;5057646;28;9227;-60
2022/04/19 01:26:07;;;;;;;;;;;;;;;25.73;32.60;93771.88;5033678;28;8382;-60
2022/04/19 01:28:36;;;;;;;;;;;;;;;25.72;32.41;93773.13;5050028;28;7273;-60
2022/04/19 01:31:06;;;;;;;;;;;;;;;25.71;32.67;93777.88;5037118;28;8043;-60
2022/04/19 01:33:38;;;;;;;;;;;;;;;25.71;32.38;93760.63;5047468;28;9092;-60
2022/04/19 01:36:04;;;;;;;;;;;;;;;25.69;32.51;93763.16;5041525;28;6973;-60
2022/04/19 01:38:32;;;;;;;;;;;;;;;25.69;31.93;93758.38;5035431;28;9467;-60
2022/04/19 01:41:05;;;;;;;;;;;;;;;25.68;32.13;93758.91;5047623;28;7449;-60
2022/04/19 01:43:41;;;;;;;;;;;;;;;25.65;32.05;93748.94;5033398;28;8772;-60
2022/04/19 01:46:07;;;;;;;;;;;;;;;25.67;32.57;93754.66;5041881;28;7207;-60
2022/04/19 01:48:33;;;;;;;;;;;;;;;25.66;31.63;93750.44;5042596;28;7303;-60
2022/04/19 01:51:00;;;;;;;;;;;;;;;25.66;31.93;93755.94;5028875;28;6996;-60
2022/04/19 01:53:27;;;;;;;;;;;;;;;25.65;32.04;93743.44;5031916;28;7267;-60
2022/04/19 01:55:53;;;;;;;;;;;;;;;25.64;31.79;93745.47;5038485;28;9073;-60
2022/04/19 01:58:21;;;;;;;;;;;;;;;25.63;32.36;93746.72;5038420;28;7152;-60
2022/04/19 02:00:49;;;;;;;;;;;;;;;25.64;31.97;93750.22;5045004;28;7247;-60
2022/04/19 02:03:16;;;;;;;;;;;;;;;25.63;31.81;93748.72;5034445;28;9016;-60
2022/04/19 02:05:44;;;;;;;;;;;;;;;25.62;31.57;93753.50;5040605;28;8316;-60
2022/04/19 02:08:10;;;;;;;;;;;;;;;25.63;31.81;93743.97;5031674;28;9614;-60
2022/04/19 02:10:40;;;;;;;;;;;;;;;25.62;32.23;93742.47;5041402;28;9025;-60
2022/04/19 02:13:13;;;;;;;;;;;;;;;25.60;31.77;93747.78;5028296;28;7444;-60
2022/04/19 02:15:43;;;;;;;;;;;;;;;25.56;31.86;93738.34;5047942;28;7066;-60
2022/04/19 02:18:15;;;;;;;;;;;;;;;25.60;31.61;93744.28;5041154;28;8078;-60
2022/04/19 02:20:45;;;;;;;;;;;;;;;25.56;32.13;93739.09;5045240;28;7333;-60
2022/04/19 02:23:16;;;;;;;;;;;;;;;25.59;32.17;93749.06;5055366;28;7275;-60
2022/04/19 02:25:51;;;;;;;;;;;;;;;25.55;31.55;93737.59;5037409;28;7186;-60
2022/04/19 02:28:18;;;;;;;;;;;;;;;25.58;31.73;93747.56;5053060;28;9192;-60
2022/04/19 02:30:44;;;;;;;;;;;;;;;25.55;31.76;93736.84;5024842;28;6981;-60
2022/04/19 02:33:11;;;;;;;;;;;;;;;25.54;32.19;93736.09;5046776;28;8794;-60
2022/04/19 02:35:38;;;;;;;;;;;;;;;25.55;32.37;93728.59;5028760;28;7314;-60
2022/04/19 02:38:03;;;;;;;;;;;;;;;25.55;31.32;93731.34;5034175;28;8027;-60
2022/04/19 02:40:29;;;;;;;;;;;;;;;25.53;31.62;93726.38;5045301;28;7001;-60
2022/04/19 02:42:56;;;;;;;;;;;;;;;25.51;32.13;93728.16;5044357;28;7457;-60
2022/04/19 02:45:23;;;;;;;;;;;;;;;25.51;31.76;93731.66;5029850;28;7928;-60
2022/04/19 02:48:04;;;;;;;;;;;;;;;25.51;32.15;93734.44;5043645;28;7246;-60
2022/04/19 02:50:45;;;;;;;;;;;;;;;25.50;31.94;93727.41;5043116;28;7388;-60
2022/04/19 02:53:14;;;;;;;;;;;;;;;25.49;31.58;93725.91;5032176;28;7214;-60
2022/04/19 02:55:41;;;;;;;;;;;;;;;25.50;31.75;93729.44;5038373;28;6979;-60
2022/04/19 02:58:07;;;;;;;;;;;;;;;25.50;31.70;93726.66;5037882;28;9255;-60
2022/04/19 03:00:35;;;;;;;;;;;;;;;25.47;31.94;93720.19;5044153;28;7297;-60
2022/04/19 03:03:01;;;;;;;;;;;;;;;25.48;31.27;93718.94;5036343;28;6971;-60
2022/04/19 03:05:27;;;;;;;;;;;;;;;25.47;31.38;93719.47;5028101;28;9123;-60
2022/04/19 03:07:53;;;;;;;;;;;;;;;25.46;31.40;93718.72;5028970;28;7114;-60
2022/04/19 03:10:25;;;;;;;;;;;;;;;25.44;31.17;93715.75;5039329;28;7220;-60
2022/04/19 03:12:51;;;;;;;;;;;;;;;25.44;31.89;93715.75;5042190;28;7198;-60
2022/04/19 03:15:20;;;;;;;;;;;;;;;25.43;31.27;93715.00;5047096;28;8775;-60
2022/04/19 03:17:45;;;;;;;;;;;;;;;25.42;31.26;93718.31;5035114;28;7210;-60
2022/04/19 03:20:12;;;;;;;;;;;;;;;25.42;31.16;93721.78;5030966;28;7835;-59
2022/04/19 03:28:19;;;;;;;;;;;;;;;25.40;31.03;93718.78;5032323;28;9537;-58
2022/04/19 03:30:55;;;;;;;;;;;;;;;25.40;31.52;93720.81;5038008;28;9006;-58
2022/04/19 03:33:31;;;;;;;;;;;;;;;25.39;31.66;93720.06;5042067;28;7028;-58
2022/04/19 03:36:00;;;;;;;;;;;;;;;25.38;30.91;93718.56;5041784;28;7007;-58
2022/04/19 03:38:28;;;;;;;;;;;;;;;25.38;31.32;93715.81;5030359;28;9418;-58
2022/04/19 03:40:54;;;;;;;;;;;;;;;25.38;31.55;93723.34;5055865;28;7707;-59
2022/04/19 03:43:20;;;;;;;;;;;;;;;25.35;31.47;93714.13;5047374;28;8997;-59
2022/04/19 03:45:46;;;;;;;;;;;;;;;25.36;31.28;93717.59;5046182;28;7122;-60
2022/04/19 03:48:15;;;;;;;;;;;;;;;25.35;31.60;93714.13;5043611;28;7390;-60
2022/04/19 03:50:46;;;;;;;;;;;;;;;25.32;31.26;93717.16;5038674;28;7535;-60
2022/04/19 03:53:16;;;;;;;;;;;;;;;25.32;31.30;93714.41;5041975;28;7231;-60
2022/04/19 03:55:44;;;;;;;;;;;;;;;25.33;31.03;93722.16;5027461;28;8879;-60
2022/04/19 03:58:10;;;;;;;;;;;;;;;25.34;31.63;93711.88;5029641;28;7210;-60
2022/04/19 04:00:37;;;;;;;;;;;;;;;25.31;31.17;93710.94;5034003;28;7217;-60
2022/04/19 04:03:04;;;;;;;;;;;;;;;25.33;30.88;93718.66;5031972;28;9078;-60
2022/04/19 04:05:30;;;;;;;;;;;;;;;25.31;30.73;93715.69;5040090;28;7214;-60
2022/04/19 04:08:01;;;;;;;;;;;;;;;25.31;30.99;93715.69;5034146;28;8936;-60
2022/04/19 04:10:27;;;;;;;;;;;;;;;25.28;30.93;93708.47;5035619;28;7061;-60
2022/04/19 04:12:57;;;;;;;;;;;;;;;25.29;30.00;93705.19;5040582;28;9203;-60
2022/04/19 04:15:22;;;;;;;;;;;;;;;25.26;29.60;93708.25;5042742;28;6944;-60
2022/04/19 04:17:51;;;;;;;;;;;;;;;25.27;30.11;93718.75;5049021;28;7238;-60
2022/04/19 04:20:48;;;;;;;;;;;;;;;25.26;30.36;93717.28;5041455;28;7024;-60
2022/04/19 04:23:23;;;;;;;;;;;;;;;25.25;29.84;93720.56;4984769;28;9166;-60
2022/04/19 04:25:49;;;;;;;;;;;;;;;25.25;29.67;93721.28;4968339;28;7248;-60
2022/04/19 04:28:16;;;;;;;;;;;;;;;25.24;29.97;93728.06;4965937;28;9576;-60
2022/04/19 04:30:51;;;;;;;;;;;;;;;25.24;30.62;93725.31;4975359;28;7059;-60
2022/04/19 04:33:28;;;;;;;;;;;;;;;25.24;30.32;93719.06;4967577;28;7308;-60
2022/04/19 04:35:56;;;;;;;;;;;;;;;25.23;30.36;93726.56;4966904;28;7205;-60
2022/04/19 04:38:22;;;;;;;;;;;;;;;25.20;29.98;93721.38;4986003;28;7569;-60
2022/04/19 04:40:51;;;;;;;;;;;;;;;25.17;29.95;93720.41;4972226;28;9242;-60
2022/04/19 04:43:16;;;;;;;;;;;;;;;25.19;30.11;93723.38;4987439;28;8851;-60
2022/04/19 04:45:43;;;;;;;;;;;;;;;25.19;30.00;93723.38;4985051;28;9113;-60
2022/04/19 04:50:56;;;;;;;;;;;;;;;25.19;30.36;93723.38;4984332;28;7233;-60
2022/04/19 04:53:51;;;;;;;;;;;;;;;25.16;29.17;93726.44;4981875;28;8731;-60
2022/04/19 04:56:27;;;;;;;;;;;;;;;25.07;28.66;93722.06;4914404;29;6999;-60
2022/04/19 04:58:58;;;;;;;;;;;;;;;25.07;28.67;93729.59;4920172;28;7248;-60
2022/04/19 05:01:23;;;;;;;;;;;;;;;25.05;28.72;93732.13;4937781;28;7243;-60
2022/04/19 05:03:51;;;;;;;;;;;;;;;25.05;28.55;93721.84;4947418;28;7256;-60
2022/04/19 05:06:17;;;;;;;;;;;;;;;25.08;28.38;93723.53;4953781;28;9041;-60
2022/04/19 05:09:05;;;;;;;;;;;;;;;25.10;28.76;93718.25;4968248;28;9071;-60
2022/04/19 05:12:08;;;;;;;;;;;;;;;25.10;28.86;93723.03;4966271;28;7642;-60
2022/04/19 05:14:36;;;;;;;;;;;;;;;25.11;28.85;93730.75;4896879;29;9049;-60
2022/04/19 05:17:02;;;;;;;;;;;;;;;25.11;28.67;93722.50;4895619;29;7436;-60
2022/04/19 05:19:28;;;;;;;;;;;;;;;25.14;28.66;93728.97;4892954;29;8772;-60
2022/04/19 05:21:56;;;;;;;;;;;;;;;25.16;28.87;93726.44;4892819;29;7152;-60
2022/04/19 05:24:24;;;;;;;;;;;;;;;25.16;28.73;93727.19;4877052;29;7260;-60
2022/04/19 05:27:06;;;;;;;;;;;;;;;25.19;28.93;93722.63;4895138;29;7977;-60
2022/04/19 05:29:57;;;;;;;;;;;;;;;25.20;29.05;93718.63;4877588;29;7849;-60
2022/04/19 05:32:32;;;;;;;;;;;;;;;25.17;28.70;93716.91;4897758;28;9580;-60
2022/04/19 05:34:58;;;;;;;;;;;;;;;25.21;29.27;93722.84;4948147;28;9514;-60
2022/04/19 05:37:24;;;;;;;;;;;;;;;25.21;28.56;93720.84;4935071;28;7297;-60
2022/04/19 05:39:50;;;;;;;;;;;;;;;25.24;28.95;93719.81;4932887;28;7096;-59
2022/04/19 05:42:17;;;;;;;;;;;;;;;25.25;28.51;93720.56;4931451;28;7313;-59
2022/04/19 05:44:55;;;;;;;;;;;;;;;25.25;29.13;93723.31;4944759;28;8905;-59
2022/04/19 05:47:21;;;;;;;;;;;;;;;25.24;29.42;93722.56;4940965;28;8615;-59
2022/04/19 05:49:54;;;;;;;;;;;;;;;25.28;28.96;93731.25;4972075;28;9281;-59
2022/04/19 05:52:36;;;;;;;;;;;;;;;25.31;29.11;93729.47;5042518;28;7279;-60
2022/04/19 05:55:32;;;;;;;;;;;;;;;25.37;28.85;93724.59;5041044;28;9489;-60
2022/04/19 05:57:59;;;;;;;;;;;;;;;25.41;29.19;93722.28;4966270;28;9121;-60
2022/04/19 06:00:31;;;;;;;;;;;;;;;25.46;29.32;93727.00;4955032;28;9121;-60
2022/04/19 06:05:42;;;;;;;;;;;;;;;25.55;29.76;93729.34;4961910;28;9431;-60
2022/04/19 06:08:11;;;;;;;;;;;;;;;25.61;30.10;93732.00;4947623;28;9259;-60
2022/04/19 06:10:38;;;;;;;;;;;;;;;25.63;29.54;93732.97;4963702;28;6979;-60
2022/04/19 06:13:10;;;;;;;;;;;;;;;25.67;30.36;93743.66;4970845;28;8419;-60
2022/04/19 06:15:37;;;;;;;;;;;;;;;25.70;29.83;93737.09;4964083;28;7087;-60
2022/04/19 06:18:04;;;;;;;;;;;;;;;25.72;30.40;93740.81;4935308;28;9218;-60
2022/04/19 06:20:30;;;;;;;;;;;;;;;25.74;30.82;93738.28;4965618;28;9434;-60
2022/04/19 06:22:58;;;;;;;;;;;;;;;25.77;29.96;93742.00;4963735;28;7051;-60
2022/04/19 06:25:26;;;;;;;;;;;;;;;25.79;30.37;93739.44;4947517;28;8721;-61
2022/04/19 06:28:01;;;;;;;;;;;;;;;25.81;30.14;93732.16;4947248;28;9204;-60
2022/04/19 06:30:27;;;;;;;;;;;;;;;25.83;30.38;93734.38;4947375;28;8939;-60
2022/04/19 06:32:53;;;;;;;;;;;;;;;25.85;29.93;93732.56;4946898;28;7243;-60
2022/04/19 06:35:21;;;;;;;;;;;;;;;25.87;30.81;93732.03;5013161;28;9079;-60
2022/04/19 06:37:50;;;;;;;;;;;;;;;25.88;30.31;93726.00;5031744;28;9941;-60
2022/04/19 06:40:16;;;;;;;;;;;;;;;25.89;30.65;93735.75;5028004;28;9358;-60
2022/04/19 06:42:48;;;;;;;;;;;;;;;25.89;30.38;93732.25;5034562;28;7268;-60
2022/04/19 06:45:14;;;;;;;;;;;;;;;25.93;30.51;93738.19;5047241;28;7692;-60
2022/04/19 06:47:40;;;;;;;;;;;;;;;25.94;30.11;93740.44;5039468;28;9037;-60
2022/04/19 06:50:09;;;;;;;;;;;;;;;25.95;30.09;93739.16;5025750;28;7218;-60
2022/04/19 06:52:35;;;;;;;;;;;;;;;25.96;30.89;93734.38;5032230;28;8121;-60
2022/04/19 06:55:03;;;;;;;;;;;;;;;25.99;30.57;93741.59;5036193;28;9434;-60
2022/04/19 06:57:35;;;;;;;;;;;;;;;25.99;30.85;93734.06;5043856;28;6994;-60
2022/04/19 07:00:19;;;;;;;;;;;;;;;26.01;30.99;93737.03;5037290;28;6984;-60
2022/04/19 07:03:11;;;;;;;;;;;;;;;26.01;30.90;93733.53;5038288;28;6863;-60
2022/04/19 07:05:43;;;;;;;;;;;;;;;26.01;30.80;93733.53;5039998;28;7162;-60
2022/04/19 07:08:22;;;;;;;;;;;;;;;25.98;30.41;93729.09;5051946;28;9393;-60
2022/04/19 07:11:11;;;;;;;;;;;;;;;26.01;30.29;93733.53;5054264;28;7521;-60
2022/04/19 07:14:12;;;;;;;;;;;;;;;26.01;31.14;93728.03;5015514;28;9018;-60
2022/04/19 07:16:51;;;;;;;;;;;;;;;26.01;31.05;93728.03;4983855;28;7685;-59
2022/04/19 07:19:18;;;;;;;;;;;;;;;25.98;30.94;93731.84;4981765;28;7246;-60
2022/04/19 07:27:45;;;;;;;;;;;;;;;25.99;31.14;93734.06;4993711;28;9415;-60
2022/04/19 07:30:11;;;;;;;;;;;;;;;25.97;31.10;93733.84;4893266;29;9129;-60
2022/04/19 07:32:37;;;;;;;;;;;;;;;25.97;31.05;93733.84;4887820;29;7507;-60
2022/04/19 07:35:06;;;;;;;;;;;;;;;25.96;31.25;93735.13;4882048;29;9413;-60
2022/04/19 07:37:33;;;;;;;;;;;;;;;25.95;30.78;93736.38;4883020;29;6983;-59
2022/04/19 07:39:59;;;;;;;;;;;;;;;25.94;30.79;93740.44;4885976;29;9414;-59
2022/04/19 07:42:25;;;;;;;;;;;;;;;25.93;31.34;93738.19;4886658;29;9351;-59
2022/04/19 07:44:53;;;;;;;;;;;;;;;25.93;31.48;93732.66;4888155;29;9113;-59
2022/04/19 07:47:31;;;;;;;;;;;;;;;25.91;31.15;93733.22;4890068;29;7507;-60
2022/04/19 07:49:57;;;;;;;;;;;;;;;25.89;31.37;93730.25;4896109;29;7154;-59
2022/04/19 07:52:36;;;;;;;;;;;;;;;25.90;30.83;93726.19;4931062;28;7989;-60
2022/04/19 07:55:02;;;;;;;;;;;;;;;25.91;31.18;93735.22;4980221;28;8765;-59
2022/04/19 07:57:39;;;;;;;;;;;;;;;25.89;31.74;93724.72;4956511;28;9235;-60
2022/04/19 08:00:06;;;;;;;;;;;;;;;25.90;30.89;93731.72;4986572;28;9069;-60
2022/04/19 08:02:33;;;;;;;;;;;;;;;25.89;31.20;93733.00;4986079;28;9272;-60
2022/04/19 08:05:00;;;;;;;;;;;;;;;25.87;31.39;93719.00;4988397;28;8251;-61
2022/04/19 08:07:26;;;;;;;;;;;;;;;25.87;31.70;93727.28;5028286;28;9178;-60
2022/04/19 08:09:58;;;;;;;;;;;;;;;25.88;31.09;93720.47;5038797;28;9666;-60
2022/04/19 08:12:27;;;;;;;;;;;;;;;25.87;30.94;93727.28;5038081;28;8882;-60
2022/04/19 08:14:55;;;;;;;;;;;;;;;25.86;31.90;93727.81;5037476;28;8815;-60
2022/04/19 08:17:24;;;;;;;;;;;;;;;25.87;31.95;93723.78;5041748;28;9332;-61
2022/04/19 08:20:05;;;;;;;;;;;;;;;25.87;31.63;93732.03;5050488;28;9222;-60
2022/04/19 08:22:35;;;;;;;;;;;;;;;25.87;31.51;93723.78;5049679;28;8812;-60
2022/04/19 08:25:07;;;;;;;;;;;;;;;25.83;31.92;93718.59;5031575;28;8900;-60
2022/04/19 08:27:47;;;;;;;;;;;;;;;25.86;32.30;93720.28;5036039;28;7509;-60
2022/04/19 08:30:21;;;;;;;;;;;;;;;25.88;31.19;93719.75;5050020;28;9434;-60
2022/04/19 08:32:48;;;;;;;;;;;;;;;25.86;31.64;93723.03;5052962;28;7075;-60
2022/04/19 08:35:14;;;;;;;;;;;;;;;25.85;31.49;93727.06;5043521;28;7081;-61
2022/04/19 08:37:40;;;;;;;;;;;;;;;25.86;31.38;93725.06;5043487;28;7347;-61
2022/04/19 08:40:11;;;;;;;;;;;;;;;25.83;31.09;93717.84;5038130;28;7000;-61
2022/04/19 08:42:41;;;;;;;;;;;;;;;25.84;31.93;93720.06;5035727;28;9003;-60
2022/04/19 08:45:32;;;;;;;;;;;;;;;25.84;31.69;93717.31;5041641;28;7224;-60
2022/04/19 08:48:00;;;;;;;;;;;;;;;25.84;31.44;93719.31;5039272;28;7061;-61
2022/04/19 08:50:31;;;;;;;;;;;;;;;25.85;31.47;93718.81;5046292;28;8997;-60
2022/04/19 08:58:59;;;;;;;;;;;;;;;25.83;30.87;93715.84;5038693;28;6922;-60
2022/04/19 09:01:29;;;;;;;;;;;;;;;25.83;31.63;93713.06;5044535;28;9496;-60
2022/04/19 09:03:56;;;;;;;;;;;;;;;25.84;31.52;93714.53;5046885;28;8910;-61
2022/04/19 09:07:00;;;;;;;;;;;;;;;25.83;31.24;93718.59;5050858;28;8757;-61
2022/04/19 09:09:34;;;;;;;;;;;;;;;25.82;31.49;93708.06;5043857;28;7237;-61
2022/04/19 09:12:20;;;;;;;;;;;;;;;25.81;31.93;93706.59;5034722;28;7347;-61
2022/04/19 09:15:12;;;;;;;;;;;;;;;25.80;31.16;93702.34;5039068;28;7536;-60
2022/04/19 09:17:43;;;;;;;;;;;;;;;25.81;31.94;93699.09;5040843;28;7316;-60
2022/04/19 09:20:25;;;;;;;;;;;;;;;25.83;31.93;93706.81;5051415;28;7046;-60
2022/04/19 09:23:26;;;;;;;;;;;;;;;25.83;32.02;93701.31;5041518;28;7358;-61
2022/04/19 09:26:08;;;;;;;;;;;;;;;25.83;31.33;93699.31;5022145;28;7938;-60
2022/04/19 09:28:35;;;;;;;;;;;;;;;25.83;31.27;93702.06;5006200;28;7754;-60
2022/04/19 09:31:11;;;;;;;;;;;;;;;25.82;31.65;93695.06;5025724;28;7277;-61
2022/04/19 09:33:37;;;;;;;;;;;;;;;25.83;31.64;93696.56;5025933;28;7236;-60
2022/04/19 09:36:04;;;;;;;;;;;;;;;25.82;31.69;93689.53;5027904;28;7088;-60
2022/04/19 09:38:35;;;;;;;;;;;;;;;25.83;31.96;93690.28;5011552;28;9370;-60
2022/04/19 09:41:02;;;;;;;;;;;;;;;25.82;31.66;93692.28;5026873;28;7482;-60
2022/04/19 09:43:29;;;;;;;;;;;;;;;25.81;31.85;93682.56;5029032;28;9075;-60
2022/04/19 09:46:06;;;;;;;;;;;;;;;25.83;31.80;93679.28;5012226;28;7228;-60
2022/04/19 09:48:42;;;;;;;;;;;;;;;25.83;31.48;93679.28;5017862;28;7886;-59
2022/04/19 09:51:12;;;;;;;;;;;;;;;25.85;31.45;93679.47;5027566;28;7350;-60
2022/04/19 09:53:43;;;;;;;;;;;;;;;25.82;31.90;93673.00;5022886;28;9189;-60
2022/04/19 09:56:22;;;;;;;;;;;;;;;25.85;31.98;93674.72;5029955;28;8418;-60
2022/04/19 09:58:50;;;;;;;;;;;;;;;25.84;32.07;93669.72;5029100;28;7419;-60
2022/04/19 10:10:16;;;;;;;;;;;;;;;25.83;32.41;93655.22;5038792;28;7033;-60
2022/04/19 10:12:57;;;;;;;;;;;;;;;25.84;31.85;93656.69;5037227;28;8737;-60
2022/04/19 10:15:30;;;;;;;;;;;;;;;25.82;31.99;93650.97;5060025;28;9112;-60
2022/04/19 10:18:12;;;;;;;;;;;;;;;25.82;32.66;93658.50;5045283;28;7054;-60
2022/04/19 10:20:45;;;;;;;;;;;;;;;25.79;32.12;93649.28;5047459;28;7182;-60
2022/04/19 10:23:21;;;;;;;;;;;;;;;25.82;31.68;93653.72;5042565;28;8799;-60
2022/04/19 10:25:49;;;;;;;;;;;;;;;25.82;32.64;93648.22;5036115;28;7236;-60
2022/04/19 10:28:28;;;;;;;;;;;;;;;25.82;32.37;93644.72;5048101;28;9485;-60
2022/04/19 10:30:55;;;;;;;;;;;;;;;25.81;32.80;93646.75;5039018;28;7261;-60
2022/04/19 10:34:00;;;;;;;;;;;;;;;25.82;31.80;93639.97;5045110;28;6965;-60
2022/04/19 10:36:39;;;;;;;;;;;;;;;25.81;32.81;93635.72;5032967;28;7259;-61
2022/04/19 10:39:14;;;;;;;;;;;;;;;25.84;32.14;93631.91;5041466;28;7483;-61
2022/04/19 10:41:55;;;;;;;;;;;;;;;25.87;31.71;93641.13;5034895;28;7215;-60
2022/04/19 10:44:32;;;;;;;;;;;;;;;25.88;32.44;93629.56;5044023;28;6998;-60
2022/04/19 10:47:16;;;;;;;;;;;;;;;25.89;32.14;93627.56;5043640;28;7346;-60
2022/04/19 10:50:07;;;;;;;;;;;;;;;25.91;31.85;93636.03;5041902;28;9440;-60
2022/04/19 10:52:37;;;;;;;;;;;;;;;25.92;32.58;93624.50;5043293;28;7232;-60
2022/04/19 10:55:07;;;;;;;;;;;;;;;25.93;32.33;93620.47;5044747;28;7880;-59
2022/04/19 11:00:55;;;;;;;;;;;;;;;25.95;32.60;93623.41;5041875;28;7031;-60
2022/04/19 11:03:33;;;;;;;;;;;;;;;25.96;32.32;93624.91;5035837;28;7217;-60
2022/04/19 11:06:02;;;;;;;;;;;;;;;25.96;32.58;93616.66;5029533;28;7881;-60
2022/04/19 11:08:38;;;;;;;;;;;;;;;25.96;31.94;93616.66;5045108;28;7085;-60
2022/04/19 11:11:20;;;;;;;;;;;;;;;25.96;31.73;93615.91;5037587;28;9307;-60
2022/04/19 11:14:16;;;;;;;;;;;;;;;25.95;31.68;93604.13;5031397;28;7115;-60
2022/04/19 11:16:50;;;;;;;;;;;;;;;25.95;31.96;93608.91;5030474;28;8762;-60
2022/04/19 11:19:22;;;;;;;;;;;;;;;25.97;32.04;93612.59;5027806;28;7268;-60
2022/04/19 11:21:54;;;;;;;;;;;;;;;25.97;31.59;93601.59;5035758;28;9752;-60
2022/04/19 11:25:02;;;;;;;;;;;;;;;25.96;31.59;93589.09;5040274;28;6974;-60
2022/04/19 11:27:53;;;;;;;;;;;;;;;26.01;32.58;93596.50;5029317;28;8357;-60
2022/04/19 11:30:24;;;;;;;;;;;;;;;26.00;32.27;93594.28;5046665;28;9065;-60
2022/04/19 11:33:26;;;;;;;;;;;;;;;26.02;32.50;93597.97;5041801;28;9042;-60
2022/04/19 11:36:00;;;;;;;;;;;;;;;26.04;32.31;93583.66;4948988;28;9060;-59
2022/04/19 11:38:28;;;;;;;;;;;;;;;26.04;32.20;93592.69;4949731;28;8897;-60
2022/04/19 11:47:03;;;;;;;;;;;;;;;26.07;32.03;93577.09;4951668;28;8967;-59
2022/04/19 11:49:34;;;;;;;;;;;;;;;26.07;31.42;93568.84;4928562;28;6962;-59
2022/04/19 11:52:08;;;;;;;;;;;;;;;26.07;31.27;93572.34;4938289;28;7421;-59
2022/04/19 11:54:42;;;;;;;;;;;;;;;26.05;31.63;93569.38;4948580;28;7404;-59
2022/04/19 11:57:12;;;;;;;;;;;;;;;26.07;31.80;93561.31;4932761;28;9370;-59
2022/04/19 11:59:43;;;;;;;;;;;;;;;26.07;31.34;93569.56;4950008;28;7559;-59
2022/04/19 12:02:17;;;;;;;;;;;;;;;26.05;31.60;93560.34;4925361;28;7240;-59
2022/04/19 12:04:59;;;;;;;;;;;;;;;26.04;30.80;93562.38;4950626;28;7131;-59
2022/04/19 12:07:27;;;;;;;;;;;;;;;26.04;31.59;93562.38;4932688;28;7353;-59
2022/04/19 12:10:04;;;;;;;;;;;;;;;26.04;30.96;93565.13;4926042;28;9628;-59
2022/04/19 12:12:33;;;;;;;;;;;;;;;26.02;31.04;93553.16;4949030;28;8594;-59
2022/04/19 12:15:11;;;;;;;;;;;;;;;26.05;31.04;93561.09;4982058;28;7663;-59
2022/04/19 12:17:50;;;;;;;;;;;;;;;26.07;31.19;93558.56;5010648;28;7007;-59
2022/04/19 12:20:19;;;;;;;;;;;;;;;26.04;31.29;93550.59;5037910;28;7068;-59
2022/04/19 12:22:50;;;;;;;;;;;;;;;26.12;31.70;93554.22;5034054;28;9014;-59
2022/04/19 12:25:24;;;;;;;;;;;;;;;26.10;31.11;93549.22;5043197;28;7634;-60
2022/04/19 12:27:51;;;;;;;;;;;;;;;26.13;31.17;93556.44;5048054;28;9257;-60
2022/04/19 12:30:20;;;;;;;;;;;;;;;26.16;31.54;93549.13;5030731;28;7130;-60
2022/04/19 12:32:55;;;;;;;;;;;;;;;26.13;31.38;93548.16;5030642;28;7372;-59
2022/04/19 12:35:37;;;;;;;;;;;;;;;26.18;30.91;93552.09;5032468;28;9161;-60
2022/04/19 12:38:10;;;;;;;;;;;;;;;26.15;30.99;93545.63;5039383;28;7099;-60
2022/04/19 12:40:38;;;;;;;;;;;;;;;26.11;31.29;93547.97;5041280;28;7210;-60
2022/04/19 12:43:05;;;;;;;;;;;;;;;26.10;31.48;93532.69;5040914;28;9239;-60
2022/04/19 12:45:35;;;;;;;;;;;;;;;26.09;31.60;93542.25;5045415;28;7233;-60
2022/04/19 12:48:07;;;;;;;;;;;;;;;26.11;31.25;93539.69;5051107;28;9199;-60
2022/04/19 12:50:34;;;;;;;;;;;;;;;26.10;31.35;93531.94;5039464;28;9034;-60
2022/04/19 12:53:02;;;;;;;;;;;;;;;26.15;30.91;93539.34;5044891;28;9347;-60
2022/04/19 12:55:42;;;;;;;;;;;;;;;26.12;30.92;93532.91;5044227;28;7136;-59
2022/04/19 12:58:17;;;;;;;;;;;;;;;26.14;30.84;93533.09;5041990;28;7172;-59
2022/04/19 13:00:47;;;;;;;;;;;;;;;26.16;31.13;93536.06;5042180;28;7219;-60
2022/04/19 13:03:14;;;;;;;;;;;;;;;26.15;31.11;93529.09;5046592;28;9450;-61
2022/04/19 13:14:40;;;;;;;;;;;;;;;26.22;30.88;93516.66;5022370;28;7058;-61
2022/04/19 13:17:16;;;;;;;;;;;;;;;26.23;30.75;93514.66;5017738;28;7385;-61
2022/04/19 13:20:03;;;;;;;;;;;;;;;26.27;31.70;93520.56;5017485;28;7529;-61
2022/04/19 13:22:36;;;;;;;;;;;;;;;26.29;31.26;93518.00;5019613;28;9671;-61
2022/04/19 13:25:20;;;;;;;;;;;;;;;26.32;31.41;93511.44;5020684;28;9049;-61
2022/04/19 13:27:53;;;;;;;;;;;;;;;26.34;31.18;93504.09;5008960;28;7109;-60
2022/04/19 13:30:20;;;;;;;;;;;;;;;26.40;30.88;93503.97;5016392;28;7004;-60
2022/04/19 13:32:47;;;;;;;;;;;;;;;26.42;31.21;93502.16;5001923;28;7707;-61
2022/04/19 13:35:13;;;;;;;;;;;;;;;26.46;31.12;93501.81;5003870;28;7224;-61
2022/04/19 13:40:23;;;;;;;;;;;;;;;26.51;30.97;93496.16;5021271;28;7959;-61
2022/04/19 13:42:51;;;;;;;;;;;;;;;26.53;31.07;93501.16;5013510;28;7270;-60
2022/04/19 13:45:18;;;;;;;;;;;;;;;26.54;31.47;93492.31;5002898;28;9433;-61
2022/04/19 13:48:05;;;;;;;;;;;;;;;26.57;30.96;93496.78;5022904;28;9420;-61
2022/04/19 13:50:33;;;;;;;;;;;;;;;26.61;31.13;93496.44;5012194;28;7459;-61
2022/04/19 13:53:06;;;;;;;;;;;;;;;26.60;31.51;93492.22;5040427;28;9060;-61
2022/04/19 13:55:31;;;;;;;;;;;;;;;26.62;30.62;93492.41;5040052;28;8922;-60
2022/04/19 13:57:57;;;;;;;;;;;;;;;26.63;31.64;93493.88;5045281;28;9252;-60
2022/04/19 14:00:29;;;;;;;;;;;;;;;26.65;30.69;93494.06;5038862;28;7148;-60
2022/04/19 14:03:06;;;;;;;;;;;;;;;26.64;31.45;93490.56;5042870;28;7373;-60
2022/04/19 14:05:44;;;;;;;;;;;;;;;26.69;31.31;93497.22;5042600;28;6977;-60
2022/04/19 14:08:24;;;;;;;;;;;;;;;26.70;30.16;93488.44;5034410;28;7094;-60
2022/04/19 14:10:58;;;;;;;;;;;;;;;26.71;28.09;93483.63;5049888;28;7390;-60
2022/04/19 14:14:03;;;;;;;;;;;;;;;26.70;26.52;93487.69;5042469;28;7229;-60
2022/04/19 14:16:31;;;;;;;;;;;;;;;26.68;25.14;93482.72;4969998;28;8744;-60